EGSS/STN METAR and TAF weather

Enter ICAO airport designator
Station Type Date Time Source
EGSS METAR 2019/08/25 06:50 UTC NOAA

EGSS 250650Z AUTO 09005KT 050V150 5000 HZ NCD 18/15 Q1018


Station Type Date Time Source
EGSS Decoded METAR 2019/08/25 06:50 UTC NOAA

Station name not available
Aug 25, 2019 - 02:50 AM EDT / 2019.08.25 0650 UTC
Wind: from the E (090 degrees) at 6 MPH (5 KT) (direction variable):0
Visibility: 3 mile(s):0
Weather: haze
Temperature: 64 F (18 C)
Dew Point: 59 F (15 C)
Relative Humidity: 82%
Pressure (altimeter): 30.06 in. Hg (1018 hPa)
ob: EGSS 250650Z AUTO 09005KT 050V150 5000 HZ NCD 18/15 Q1018
cycle: 7

Station Type Date Time Source
EGSS TAF 2019/08/25 06:06 UTC NOAA

TAF EGSS 250454Z 2506/2612 09005KT 4000 HZ NSC
BECMG 2506/2508 CAVOK
BECMG 2522/2601 8000 PROB30 2601/2607 4000 HZ

Example: see airport list